Time;durP1;ratioP1;P1;durP2;ratioP2;P2;SDS_P1;SDS_P2;PMS_P1;PMS_P2;Temp;Humidity;BMP_temperature;BMP_pressure;BME280_temperature;BME280_humidity;BME280_pressure;Samples;Min_cycle;Max_cycle;Signal;HPM_P1;HPM_P2
2023/04/02 00:01:46;;;;;;;;;;;;;;;13.33;64.74;100211.02;106307;1276;25915;-51
2023/04/02 00:04:25;;;;;;;18.40;5.90;;;;;;;13.32;64.85;100207.58;106274;1282;25331;-51
2023/04/02 00:07:14;;;;;;;17.80;6.30;;;;;;;13.30;64.91;100203.82;106268;1277;25546;-50
2023/04/02 00:09:41;;;;;;;15.80;5.40;;;;;;;13.29;64.96;100204.74;105921;1280;25475;-52
2023/04/02 00:12:14;;;;;;;21.10;6.30;;;;;;;13.29;64.96;100202.15;105669;1287;26509;-49
2023/04/02 00:14:46;;;;;;;28.00;7.90;;;;;;;13.28;64.99;100198.33;105942;1281;22534;-52
2023/04/02 00:17:13;;;;;;;16.70;6.00;;;;;;;13.27;65.01;100197.34;105515;1287;25549;-51
2023/04/02 00:19:57;;;;;;;19.40;6.10;;;;;;;13.26;65.11;100193.36;106107;1280;25416;-49
2023/04/02 00:22:28;;;;;;;26.60;7.50;;;;;;;13.27;65.24;100187.77;105970;1284;25367;-53
2023/04/02 00:24:55;;;;;;;20.90;6.90;;;;;;;13.27;65.25;100184.98;106172;1281;22555;-49
2023/04/02 00:27:23;;;;;;;21.60;7.40;;;;;;;13.28;65.27;100181.09;106206;1280;25480;-50
2023/04/02 00:29:54;;;;;;;33.20;8.20;;;;;;;13.28;65.24;100175.16;105799;1280;25408;-50
2023/04/02 00:32:31;;;;;;;20.80;6.80;;;;;;;13.28;65.30;100171.50;106002;1280;25422;-50
2023/04/02 00:34:59;;;;;;;21.40;7.30;;;;;;;13.28;65.39;100166.31;106661;1273;25587;-49
2023/04/02 00:37:28;;;;;;;27.00;8.90;;;;;;;13.26;65.37;100162.00;106652;1273;25372;-50
2023/04/02 00:39:59;;;;;;;25.00;8.10;;;;;;;13.24;65.45;100160.88;106638;1280;23523;-51
2023/04/02 00:42:29;;;;;;;25.10;8.20;;;;;;;13.24;65.49;100162.97;106738;1273;22564;-49
2023/04/02 00:44:57;;;;;;;24.30;7.10;;;;;;;13.24;65.62;100163.66;106726;1273;25384;-49
2023/04/02 00:47:26;;;;;;;24.30;8.50;;;;;;;13.24;65.67;100162.45;106815;1274;22548;-49
2023/04/02 00:50:23;;;;;;;20.10;6.80;;;;;;;13.24;65.80;100162.63;107077;1270;25509;-52
2023/04/02 00:52:51;;;;;;;26.40;8.60;;;;;;;13.25;65.73;100159.11;106445;1277;25348;-52
2023/04/02 00:55:24;;;;;;;26.00;8.60;;;;;;;13.25;65.77;100158.05;106633;1280;25697;-49
2023/04/02 00:57:51;;;;;;;21.00;7.80;;;;;;;13.25;65.76;100159.13;106524;1259;22536;-51
2023/04/02 01:00:23;;;;;;;25.10;8.60;;;;;;;13.24;65.83;100160.70;106400;1280;25386;-51
2023/04/02 01:03:21;;;;;;;24.80;6.90;;;;;;;13.25;65.79;100156.16;106213;1264;25703;-50
2023/04/02 01:06:02;;;;;;;28.60;7.90;;;;;;;13.25;65.81;100150.02;106548;1277;24525;-50
2023/04/02 01:08:54;;;;;;;23.90;8.20;;;;;;;13.26;65.76;100151.77;106516;1277;22694;-49
2023/04/02 01:11:46;;;;;;;18.90;7.10;;;;;;;13.25;65.82;100145.02;106520;1282;25528;-51
2023/04/02 01:14:36;;;;;;;29.30;9.00;;;;;;;13.24;65.75;100146.27;106579;1276;25551;-49
2023/04/02 01:17:19;;;;;;;25.80;8.00;;;;;;;13.22;65.84;100145.98;105835;1276;1003650;-50
2023/04/02 01:20:17;;;;;;;25.20;8.70;;;;;;;13.20;65.82;100142.27;106557;1274;25457;-50
2023/04/02 01:23:01;;;;;;;23.50;8.30;;;;;;;13.18;65.98;100144.25;105026;1276;1003533;-50
2023/04/02 01:25:38;;;;;;;24.30;7.80;;;;;;;13.18;66.03;100147.55;106592;1276;25700;-49
2023/04/02 01:28:18;;;;;;;29.30;8.50;;;;;;;13.19;66.08;100143.69;106501;1276;26541;-50
2023/04/02 01:30:51;;;;;;;26.10;8.40;;;;;;;13.19;66.00;100143.49;106774;1266;24361;-49
2023/04/02 01:33:28;;;;;;;20.90;7.80;;;;;;;13.19;65.90;100143.70;106859;1267;25468;-50
2023/04/02 01:36:04;;;;;;;23.40;7.80;;;;;;;13.17;65.96;100141.88;107125;1267;25407;-50
2023/04/02 01:38:36;;;;;;;24.20;7.90;;;;;;;13.13;65.93;100137.16;107121;1254;25490;-49
2023/04/02 01:41:20;;;;;;;30.50;7.90;;;;;;;13.09;66.09;100131.94;107063;1270;25337;-50
2023/04/02 01:43:59;;;;;;;26.00;7.80;;;;;;;13.05;66.26;100128.92;107120;1266;26639;-50
2023/04/02 01:46:31;;;;;;;33.80;7.90;;;;;;;13.03;66.33;100121.31;106866;1267;25331;-48
2023/04/02 01:49:08;;;;;;;29.20;8.80;;;;;;;13.02;66.38;100117.17;106862;1267;26484;-50
2023/04/02 01:51:39;;;;;;;30.40;9.60;;;;;;;12.99;66.52;100113.47;107062;1267;25405;-51
2023/04/02 01:54:07;;;;;;;28.60;7.80;;;;;;;12.97;66.70;100107.65;107148;1270;22525;-50
2023/04/02 01:56:34;;;;;;;26.10;9.00;;;;;;;12.95;66.70;100108.42;106918;1270;25366;-49
2023/04/02 01:59:04;;;;;;;23.30;7.90;;;;;;;12.93;66.82;100110.27;107118;1269;25408;-50
2023/04/02 02:01:37;;;;;;;27.80;7.90;;;;;;;12.90;66.90;100107.41;107059;1267;24228;-51
2023/04/02 02:04:05;;;;;;;24.00;7.20;;;;;;;12.89;67.03;100107.13;107078;1274;25382;-50
2023/04/02 02:06:33;;;;;;;29.60;9.10;;;;;;;12.88;67.13;100104.70;106843;1267;25385;-50
2023/04/02 02:09:02;;;;;;;23.80;7.70;;;;;;;12.86;67.15;100103.41;106869;1270;25408;-52
2023/04/02 02:11:32;;;;;;;30.00;8.20;;;;;;;12.84;67.18;100097.23;107038;1269;25337;-50
2023/04/02 02:14:01;;;;;;;25.30;8.40;;;;;;;12.82;67.35;100096.61;107124;1267;25516;-50
2023/04/02 02:16:32;;;;;;;24.30;7.30;;;;;;;12.80;67.42;100095.46;107065;1267;25368;-50
2023/04/02 02:19:01;;;;;;;25.30;8.90;;;;;;;12.79;67.54;100094.83;107116;1267;24279;-50
2023/04/02 02:21:38;;;;;;;31.20;8.00;;;;;;;12.77;67.65;100088.09;107049;1266;22580;-50
2023/04/02 02:24:08;;;;;;;27.30;8.50;;;;;;;12.75;67.80;100082.79;107062;1266;25457;-50
2023/04/02 02:26:35;;;;;;;29.40;9.30;;;;;;;12.75;67.93;100080.38;106836;1267;24264;-50
2023/04/02 02:29:02;;;;;;;24.80;7.50;;;;;;;12.75;68.08;100077.61;106135;1267;1002930;-51
2023/04/02 02:31:31;;;;;;;34.40;8.50;;;;;;;12.73;68.07;100078.19;106978;1267;22534;-50
2023/04/02 02:34:27;;;;;;;29.90;9.70;;;;;;;12.71;68.22;100080.87;107134;1266;25540;-52
2023/04/02 02:37:01;;;;;;;35.90;9.00;;;;;;;12.70;68.40;100072.23;106630;1277;24041;-52
2023/04/02 02:39:36;;;;;;;29.40;8.40;;;;;;;12.70;68.57;100076.77;106523;1276;22556;-53
2023/04/02 02:42:27;;;;;;;25.30;7.70;;;;;;;12.71;68.63;100077.73;106715;1273;25346;-53
2023/04/02 02:44:55;;;;;;;35.20;8.60;;;;;;;12.72;68.66;100079.65;106214;1278;25478;-54
2023/04/02 02:47:27;;;;;;;23.40;7.90;;;;;;;12.73;68.81;100079.08;106082;1281;26563;-52
2023/04/02 02:49:57;;;;;;;20.80;7.50;;;;;;;12.74;68.79;100074.16;106068;1279;24198;-52
2023/04/02 02:52:34;;;;;;;20.20;6.90;;;;;;;12.74;68.81;100074.50;106070;1278;24251;-53
2023/04/02 02:55:10;;;;;;;26.40;8.50;;;;;;;12.76;68.85;100073.55;106173;1282;25369;-53
2023/04/02 02:58:05;;;;;;;22.30;8.10;;;;;;;12.77;68.81;100066.35;106110;1282;25349;-54
2023/04/02 03:00:38;;;;;;;30.00;8.80;;;;;;;12.76;68.83;100061.52;106243;1278;25335;-55
2023/04/02 03:03:08;;;;;;;25.90;8.00;;;;;;;12.77;68.74;100063.59;106377;1278;22715;-54
2023/04/02 03:05:36;;;;;;;13.00;5.70;;;;;;;12.76;68.81;100059.61;106103;1284;22834;-55
2023/04/02 03:08:14;;;;;;;29.20;7.70;;;;;;;12.76;68.86;100060.83;106321;1279;22685;-55
2023/04/02 03:10:44;;;;;;;21.70;7.50;;;;;;;12.75;68.88;100058.43;106071;1279;22538;-55
2023/04/02 03:13:21;;;;;;;22.30;7.60;;;;;;;12.74;68.90;100053.95;105992;1273;22645;-53
2023/04/02 03:15:57;;;;;;;24.00;7.20;;;;;;;12.73;68.97;100062.73;106684;1272;24333;-54
2023/04/02 03:18:36;;;;;;;21.00;6.70;;;;;;;12.70;69.11;100054.63;106775;1271;25468;-54
2023/04/02 03:21:41;;;;;;;24.00;7.90;;;;;;;12.70;69.09;100051.17;106699;1272;25318;-54
2023/04/02 03:24:14;;;;;;;22.50;7.50;;;;;;;12.69;69.23;100054.36;107116;1250;25545;-54
2023/04/02 03:26:48;;;;;;;22.50;6.80;;;;;;;12.68;69.15;100047.09;107145;1266;25223;-54
2023/04/02 03:29:20;;;;;;;25.20;6.40;;;;;;;12.66;69.17;100046.83;106850;1267;25471;-54
2023/04/02 03:32:02;;;;;;;24.10;7.70;;;;;;;12.64;69.23;100048.84;107113;1251;22542;-54
2023/04/02 03:34:44;;;;;;;24.90;6.50;;;;;;;12.62;69.33;100051.16;107209;1266;25395;-54
2023/04/02 03:37:20;;;;;;;24.30;7.10;;;;;;;12.61;69.30;100052.95;107127;1266;24371;-55
2023/04/02 03:40:03;;;;;;;26.00;6.70;;;;;;;12.60;69.35;100051.59;107126;1267;24359;-54
2023/04/02 03:42:44;;;;;;;21.00;6.20;;;;;;;12.59;69.44;100050.24;107137;1266;22524;-54
2023/04/02 03:45:22;;;;;;;31.50;7.80;;;;;;;12.59;69.62;100048.52;107096;1266;26481;-56
2023/04/02 03:48:00;;;;;;;24.00;7.50;;;;;;;12.59;69.70;100051.95;107069;1267;25401;-55
2023/04/02 03:50:37;;;;;;;23.70;7.20;;;;;;;12.59;69.71;100048.48;106849;1260;24224;-55
2023/04/02 03:53:05;;;;;;;18.30;6.30;;;;;;;12.58;69.85;100051.14;106876;1266;24192;-55
2023/04/02 03:55:34;;;;;;;23.60;7.50;;;;;;;12.58;69.93;100049.42;106922;1267;25367;-56
2023/04/02 03:58:31;;;;;;;21.30;7.20;;;;;;;12.60;69.98;100053.33;106320;1273;1003738;-57
2023/04/02 04:01:02;;;;;;;20.60;7.10;;;;;;;12.61;69.79;100049.95;107132;1267;22607;-57
2023/04/02 04:03:36;;;;;;;32.20;9.60;;;;;;;12.60;69.88;100049.16;106794;1270;22619;-54
2023/04/02 04:09:36;;;;;;;26.80;7.10;;;;;;;12.61;70.01;100053.27;103638;1298;544882;-52
2023/04/02 04:12:17;;;;;;;26.40;8.60;;;;;;;12.59;70.17;100048.30;105750;1286;22589;-51
2023/04/02 04:14:55;;;;;;;21.40;7.10;;;;;;;12.61;70.23;100046.52;105927;1284;22646;-50
2023/04/02 04:17:33;;;;;;;25.50;7.60;;;;;;;12.62;70.31;100046.30;105949;1284;22541;-51
2023/04/02 04:20:16;;;;;;;24.30;7.40;;;;;;;12.62;70.25;100045.60;105859;1282;22555;-50
2023/04/02 04:22:48;;;;;;;26.70;7.40;;;;;;;12.61;70.39;100047.71;106254;1268;231231;-50
2023/04/02 04:25:28;;;;;;;21.20;6.40;;;;;;;12.60;70.41;100043.06;106669;1275;25332;-50
2023/04/02 04:28:12;;;;;;;18.20;6.30;;;;;;;12.60;70.51;100045.34;106769;1275;24273;-51
2023/04/02 04:30:49;;;;;;;;;;;;;;;12.60;70.61;100040.30;104535;1273;1003803;-49
2023/04/02 04:33:24;;;;;;;25.20;6.70;;;;;;;12.59;70.78;100038.90;106363;1264;25275;-51
2023/04/02 04:35:58;;;;;;;19.20;6.50;;;;;;;12.60;70.79;100040.28;106533;1275;25332;-50
2023/04/02 04:38:32;;;;;;;23.50;6.40;;;;;;;12.60;70.87;100039.41;106612;1274;22536;-50
2023/04/02 04:41:21;;;;;;;21.20;6.60;;;;;;;12.60;70.83;100038.70;106492;1272;25275;-49
2023/04/02 04:44:00;;;;;;;20.20;6.20;;;;;;;12.58;70.84;100037.92;106679;1272;22631;-50
2023/04/02 04:46:51;;;;;;;21.20;6.30;;;;;;;12.58;70.83;100032.55;106780;1270;25425;-51
2023/04/02 04:50:01;;;;;;;19.80;6.70;;;;;;;12.57;70.88;100031.19;106313;1277;25336;-51
2023/04/02 04:52:35;;;;;;;18.10;6.10;;;;;;;12.56;70.88;100033.50;105948;1283;26637;-51
2023/04/02 04:55:29;;;;;;;21.60;6.70;;;;;;;12.56;71.00;100033.84;105961;1282;22594;-52
2023/04/02 04:58:20;;;;;;;22.20;6.70;;;;;;;12.56;70.95;100033.99;105868;1281;25401;-50
2023/04/02 05:01:15;;;;;;;23.70;7.30;;;;;;;12.58;70.83;100030.30;105986;1284;25363;-51
2023/04/02 05:03:58;;;;;;;26.40;7.00;;;;;;;12.58;70.91;100024.70;105875;1281;25312;-50
2023/04/02 05:06:38;;;;;;;24.00;5.90;;;;;;;12.58;70.87;100024.17;105935;1284;25470;-50
2023/04/02 05:09:29;;;;;;;26.50;7.10;;;;;;;12.59;70.81;100016.84;106233;1281;23690;-49
2023/04/02 05:12:17;;;;;;;19.10;6.50;;;;;;;12.58;70.78;100012.36;105987;1279;25343;-50
2023/04/02 05:15:08;;;;;;;22.00;6.30;;;;;;;12.56;70.75;100012.09;106272;1279;25861;-51
2023/04/02 05:17:45;;;;;;;20.30;6.50;;;;;;;12.54;70.73;100012.52;106212;1286;25484;-52
2023/04/02 05:20:20;;;;;;;;;;;;;;;12.53;70.78;100009.92;106102;1279;22771;-51
2023/04/02 05:23:05;;;;;;;24.20;6.10;;;;;;;12.52;70.77;100009.29;106244;1265;25245;-51
2023/04/02 05:25:35;;;;;;;22.70;7.70;;;;;;;12.51;70.77;100008.83;106043;1281;24198;-51
2023/04/02 05:28:26;;;;;;;30.60;7.20;;;;;;;12.50;70.75;100005.04;106130;1277;25509;-51
2023/04/02 05:31:00;;;;;;;23.90;7.80;;;;;;;12.48;70.70;100004.08;107113;1273;22529;-50
2023/04/02 05:33:32;;;;;;;16.00;5.60;;;;;;;12.47;70.69;100005.17;106719;1273;22536;-50
2023/04/02 05:36:07;;;;;;;25.20;6.60;;;;;;;12.44;70.74;100003.05;106807;1268;22557;-50
2023/04/02 05:38:44;;;;;;;20.10;6.30;;;;;;;12.41;70.67;100000.38;106807;1273;22738;-50
2023/04/02 05:41:31;;;;;;;22.60;6.70;;;;;;;12.38;70.72;100000.33;106683;1272;25336;-51
2023/04/02 05:44:06;;;;;;;23.50;6.90;;;;;;;12.36;70.81;100000.92;106383;1272;25354;-50
2023/04/02 05:46:39;;;;;;;20.10;6.40;;;;;;;12.34;70.84;100003.27;106675;1277;25364;-50
2023/04/02 05:49:10;;;;;;;23.40;7.40;;;;;;;12.34;70.93;100001.55;106733;1279;24218;-49
2023/04/02 05:51:41;;;;;;;29.40;8.00;;;;;;;12.32;71.06;100003.53;106650;1272;25282;-49
2023/04/02 05:54:22;;;;;;;33.50;7.80;;;;;;;12.31;71.10;100005.98;106466;1279;25409;-50
2023/04/02 05:56:56;;;;;;;21.50;7.30;;;;;;;12.30;71.10;100006.58;106706;1262;24458;-49
2023/04/02 05:59:38;;;;;;;25.60;7.40;;;;;;;12.28;71.12;100008.04;106692;1276;24204;-50
2023/04/02 06:02:18;;;;;;;;;;;;;;;12.26;71.21;100012.82;106857;1272;22493;-50
2023/04/02 06:05:14;;;;;;;23.50;7.10;;;;;;;12.26;71.33;100012.83;107101;1262;24263;-49
2023/04/02 06:07:58;;;;;;;24.30;7.30;;;;;;;12.25;71.39;100020.85;106704;1275;25345;-49
2023/04/02 06:10:29;;;;;;;20.50;5.60;;;;;;;12.26;71.48;100020.67;106919;1276;25181;-51
2023/04/02 06:13:04;;;;;;;29.70;7.10;;;;;;;12.25;71.60;100018.08;106706;1275;25340;-51
2023/04/02 06:15:37;;;;;;;21.50;6.80;;;;;;;12.24;71.63;100016.73;106362;1269;25332;-51
2023/04/02 06:18:17;;;;;;;21.10;5.90;;;;;;;12.23;71.59;100014.31;106462;1276;24219;-49
2023/04/02 06:20:48;;;;;;;25.30;7.30;;;;;;;12.26;71.63;100017.02;106498;1275;22929;-50
2023/04/02 06:23:33;;;;;;;19.90;6.10;;;;;;;12.27;71.59;100021.11;106725;1275;22597;-50
2023/04/02 06:26:05;;;;;;;20.40;6.50;;;;;;;12.28;71.64;100019.00;106588;1275;22527;-51
2023/04/02 06:28:39;;;;;;;22.40;6.30;;;;;;;12.30;71.64;100021.55;106478;1274;22586;-52
2023/04/02 06:31:37;;;;;;;16.50;6.00;;;;;;;12.29;71.70;100021.55;106942;1275;24269;-52
2023/04/02 06:34:16;;;;;;;23.60;7.40;;;;;;;12.29;71.75;100021.20;106445;1277;25332;-51
2023/04/02 06:36:57;;;;;;;26.10;7.10;;;;;;;12.30;71.76;100021.17;106238;1276;25332;-50
2023/04/02 06:39:26;;;;;;;29.80;8.20;;;;;;;12.31;71.93;100027.23;106275;1272;25217;-50
2023/04/02 06:42:10;;;;;;;21.40;6.60;;;;;;;12.32;71.84;100025.61;106433;1281;25313;-49
2023/04/02 06:45:27;;;;;;;26.90;6.20;;;;;;;12.34;71.79;100031.63;106106;1278;25347;-51
2023/04/02 06:48:24;;;;;;;26.50;6.10;;;;;;;12.36;71.87;100029.11;106355;1277;25471;-50
2023/04/02 06:51:08;;;;;;;25.40;7.60;;;;;;;12.38;71.93;100028.51;106332;1275;25316;-51
2023/04/02 06:53:40;;;;;;;24.10;8.20;;;;;;;12.40;71.99;100031.89;106850;1274;22518;-49
2023/04/02 06:56:27;;;;;;;20.30;6.60;;;;;;;12.41;71.89;100030.80;106618;1272;25347;-51
2023/04/02 06:58:57;;;;;;;24.70;7.10;;;;;;;12.41;71.91;100031.83;106896;1269;23860;-49
2023/04/02 07:01:28;;;;;;;24.70;7.20;;;;;;;12.44;71.83;100030.16;106743;1273;24496;-49
2023/04/02 07:03:59;;;;;;;27.80;7.50;;;;;;;12.45;71.90;100030.13;106884;1272;25318;-49
2023/04/02 07:06:36;;;;;;;33.30;9.40;;;;;;;12.48;72.01;100031.91;106918;1270;22735;-50
2023/04/02 07:09:05;;;;;;;33.80;8.90;;;;;;;12.55;71.92;100032.68;107008;1267;25280;-49
2023/04/02 07:11:37;;;;;;;35.30;8.90;;;;;;;12.59;72.04;100034.39;107020;1269;25455;-51
2023/04/02 07:14:11;;;;;;;36.40;9.60;;;;;;;12.64;72.01;100033.15;106854;1266;23884;-51
2023/04/02 07:16:41;;;;;;;30.80;9.40;;;;;;;12.70;71.98;100033.97;107232;1269;24183;-50
2023/04/02 07:19:18;;;;;;;36.40;10.40;;;;;;;12.75;71.85;100031.46;106890;1268;22629;-49
2023/04/02 07:21:51;;;;;;;40.50;11.10;;;;;;;12.80;72.03;100029.52;106872;1269;25399;-50
2023/04/02 07:24:21;;;;;;;33.40;10.00;;;;;;;12.82;72.23;100028.90;106985;1269;25321;-50
2023/04/02 07:26:50;;;;;;;44.00;12.50;;;;;;;12.89;72.27;100032.61;107022;1269;25358;-49
2023/04/02 07:29:19;;;;;;;36.00;11.20;;;;;;;12.96;72.44;100033.70;106874;1273;25360;-51
2023/04/02 07:31:47;;;;;;;43.90;11.70;;;;;;;13.04;72.46;100035.64;106856;1275;22574;-51
2023/04/02 07:34:16;;;;;;;44.10;11.60;;;;;;;13.11;72.42;100040.40;106933;1271;24198;-51
2023/04/02 07:36:45;;;;;;;37.30;10.00;;;;;;;13.17;72.30;100036.51;107012;1268;24264;-51
2023/04/02 07:39:14;;;;;;;33.40;10.00;;;;;;;13.22;72.23;100038.20;106157;1273;1002843;-51
2023/04/02 07:41:54;;;;;;;37.30;10.80;;;;;;;13.25;72.02;100034.71;107071;1269;22540;-52
2023/04/02 07:44:23;;;;;;;31.80;10.70;;;;;;;13.28;71.73;100039.11;106641;1276;24281;-53
2023/04/02 07:46:52;;;;;;;31.60;9.50;;;;;;;13.30;71.56;100039.38;107079;1273;25322;-52
2023/04/02 07:49:29;;;;;;;29.50;9.90;;;;;;;13.32;71.44;100039.66;106957;1275;24284;-52
2023/04/02 07:51:57;;;;;;;34.70;10.20;;;;;;;13.33;71.44;100040.99;106913;1270;22541;-52
2023/04/02 07:54:26;;;;;;;26.60;9.50;;;;;;;13.34;71.17;100038.36;106756;1275;25444;-53
2023/04/02 07:56:55;;;;;;;31.50;10.50;;;;;;;13.35;71.04;100042.33;106973;1270;25305;-53
2023/04/02 07:59:23;;;;;;;30.00;9.80;;;;;;;13.36;71.15;100039.46;106959;1268;22544;-53
2023/04/02 08:01:53;;;;;;;25.60;8.70;;;;;;;13.39;71.08;100037.77;107230;1268;25351;-54
2023/04/02 08:04:22;;;;;;;29.20;8.90;;;;;;;13.42;71.09;100040.27;106909;1273;22730;-54
2023/04/02 08:06:51;;;;;;;23.50;8.30;;;;;;;13.45;71.15;100041.67;106989;1274;25275;-55
2023/04/02 08:09:20;;;;;;;29.20;8.30;;;;;;;13.48;71.09;100041.88;106820;1269;24362;-56
2023/04/02 08:11:54;;;;;;;29.20;9.20;;;;;;;13.53;70.97;100044.61;104653;1268;1003507;-56
2023/04/02 08:14:22;;;;;;;29.80;9.20;;;;;;;13.57;70.92;100040.26;106839;1269;26756;-56
2023/04/02 08:16:52;;;;;;;27.80;8.10;;;;;;;13.62;70.98;100040.58;106868;1273;25348;-57
2023/04/02 08:19:24;;;;;;;27.50;9.00;;;;;;;13.68;71.00;100044.45;106811;1268;25388;-57
2023/04/02 08:21:53;;;;;;;33.20;8.60;;;;;;;13.74;71.14;100044.69;106850;1276;22526;-56
2023/04/02 08:24:22;;;;;;;24.20;8.00;;;;;;;13.83;71.27;100042.55;106896;1275;25250;-55
2023/04/02 08:26:52;;;;;;;27.40;8.50;;;;;;;13.91;71.22;100042.14;106635;1269;25156;-55
2023/04/02 08:29:21;;;;;;;26.90;8.30;;;;;;;14.01;71.12;100040.83;107024;1269;22529;-55
2023/04/02 08:31:50;;;;;;;20.40;8.30;;;;;;;14.09;70.76;100045.31;106852;1269;25332;-54
2023/04/02 08:34:19;;;;;;;23.10;9.00;;;;;;;14.16;70.41;100041.84;106902;1269;22527;-54
2023/04/02 08:36:48;;;;;;;17.10;7.50;;;;;;;14.23;70.28;100042.38;106789;1276;22538;-54
2023/04/02 08:39:16;;;;;;;18.20;8.20;;;;;;;14.30;69.82;100045.38;106796;1276;25226;-53
2023/04/02 08:41:53;;;;;;;15.50;7.10;;;;;;;14.34;69.55;100047.77;106935;1269;25343;-53
2023/04/02 08:44:50;;;;;;;24.80;8.70;;;;;;;14.39;69.43;100047.53;106911;1268;23889;-53
2023/04/02 08:47:19;;;;;;;19.60;8.10;;;;;;;14.46;69.49;100044.56;106741;1277;24321;-52
2023/04/02 08:49:58;;;;;;;13.50;8.10;;;;;;;14.53;69.24;100049.83;106752;1270;22637;-52
2023/04/02 08:52:31;;;;;;;13.90;6.90;;;;;;;14.58;68.75;100049.23;106664;1276;25325;-52
2023/04/02 08:55:01;;;;;;;11.30;7.30;;;;;;;14.59;68.29;100052.16;106031;1271;1003640;-51
2023/04/02 08:57:38;;;;;;;18.00;8.30;;;;;;;14.59;67.93;100057.91;106894;1276;22533;-51
2023/04/02 09:00:14;;;;;;;14.90;9.00;;;;;;;14.58;67.57;100057.10;106931;1274;24217;-53
2023/04/02 09:02:48;;;;;;;19.00;10.00;;;;;;;14.55;67.47;100058.63;106900;1268;25318;-50
2023/04/02 09:05:27;;;;;;;21.10;10.60;;;;;;;14.53;67.49;100056.61;106717;1272;25335;-50
2023/04/02 09:07:58;;;;;;;19.20;10.80;;;;;;;14.51;67.38;100052.69;106834;1275;22530;-52
2023/04/02 09:10:41;;;;;;;22.40;12.30;;;;;;;14.50;67.41;100053.46;106955;1268;22535;-51
2023/04/02 09:13:17;;;;;;;21.60;12.20;;;;;;;14.49;67.30;100053.51;106770;1273;25332;-53
2023/04/02 09:15:47;;;;;;;21.40;11.50;;;;;;;14.49;67.41;100053.36;106805;1275;25400;-52
2023/04/02 09:18:16;;;;;;;22.30;11.70;;;;;;;14.48;67.49;100057.39;106980;1269;25352;-51
2023/04/02 09:20:49;;;;;;;22.10;11.20;;;;;;;14.48;67.44;100058.27;106839;1274;25322;-50
2023/04/02 09:23:20;;;;;;;19.50;11.10;;;;;;;14.46;67.27;100057.84;106943;1269;25333;-51
2023/04/02 09:25:50;;;;;;;23.70;11.10;;;;;;;14.45;67.32;100053.19;106923;1268;22743;-50
2023/04/02 09:28:31;;;;;;;20.70;10.20;;;;;;;14.44;67.20;100056.02;106811;1269;25489;-52
2023/04/02 09:31:04;;;;;;;20.60;9.60;;;;;;;14.45;67.19;100055.48;106915;1269;22555;-51
2023/04/02 09:33:45;;;;;;;20.00;10.70;;;;;;;14.43;66.97;100056.08;106904;1269;22517;-52
2023/04/02 09:36:33;;;;;;;26.60;10.70;;;;;;;14.40;66.97;100059.02;106828;1269;22535;-49
2023/04/02 09:39:08;;;;;;;23.80;10.50;;;;;;;14.38;67.05;100060.19;106799;1253;24332;-51
2023/04/02 09:41:37;;;;;;;19.00;10.10;;;;;;;14.36;67.08;100059.74;106830;1275;22535;-50
2023/04/02 09:44:18;;;;;;;20.30;9.40;;;;;;;14.34;67.03;100060.17;106894;1276;25350;-51
2023/04/02 09:46:52;;;;;;;18.30;8.40;;;;;;;14.31;66.89;100061.55;106738;1270;22621;-51
2023/04/02 09:49:22;;;;;;;19.30;7.90;;;;;;;14.28;67.00;100060.63;107126;1270;22533;-50
2023/04/02 09:52:17;;;;;;;14.50;7.00;;;;;;;14.25;66.98;100062.33;106966;1272;24823;-50
2023/04/02 09:55:04;;;;;;;16.70;6.30;;;;;;;14.22;66.99;100064.23;106551;1278;22568;-50
2023/04/02 09:57:33;;;;;;;14.40;5.90;;;;;;;14.21;67.05;100067.41;106527;1275;22651;-50
2023/04/02 10:00:15;;;;;;;13.70;5.80;;;;;;;14.20;66.87;100070.08;106529;1269;22532;-50
2023/04/02 10:03:25;;;;;;;17.00;6.00;;;;;;;14.18;66.72;100066.87;106493;1275;23307;-50
2023/04/02 10:06:13;;;;;;;12.90;5.20;;;;;;;14.12;66.78;100068.88;106584;1275;25141;-50
2023/04/02 10:08:44;;;;;;;15.60;5.50;;;;;;;14.08;66.74;100073.45;106490;1275;23174;-51
2023/04/02 10:11:15;;;;;;;12.50;4.90;;;;;;;14.04;66.83;100075.55;106932;1275;25325;-50
2023/04/02 10:13:52;;;;;;;14.20;4.70;;;;;;;14.01;66.81;100080.05;106709;1277;24554;-51
2023/04/02 10:16:31;;;;;;;13.30;4.60;;;;;;;13.97;66.88;100079.21;107099;1269;22537;-52
2023/04/02 10:19:22;;;;;;;16.80;4.70;;;;;;;13.93;66.82;100084.43;106169;1275;1003756;-51
2023/04/02 10:21:53;;;;;;;18.80;6.60;;;;;;;13.87;67.02;100083.13;106499;1275;24230;-50
2023/04/02 10:24:21;;;;;;;13.70;5.20;;;;;;;13.85;67.38;100089.17;107224;1272;25354;-51
2023/04/02 10:27:10;;;;;;;9.40;5.30;;;;;;;13.84;67.65;100086.25;106942;1275;24109;-51
2023/04/02 10:30:15;;;;;;;13.80;5.40;;;;;;;13.85;67.97;100090.19;107132;1275;23606;-51
2023/04/02 10:33:00;;;;;;;11.10;5.70;;;;;;;13.88;68.56;100092.17;106840;1272;22521;-50
2023/04/02 10:36:06;;;;;;;11.50;5.60;;;;;;;13.91;68.74;100095.34;106946;1272;25564;-50
2023/04/02 10:39:07;;;;;;;14.90;5.40;;;;;;;13.94;68.72;100094.86;105957;1273;1003236;-50
2023/04/02 10:41:59;;;;;;;15.20;6.20;;;;;;;13.92;68.53;100096.15;106244;1276;23339;-52
2023/04/02 10:44:50;;;;;;;14.80;5.20;;;;;;;13.91;68.77;100100.94;106321;1275;24001;-51
2023/04/02 10:47:40;;;;;;;14.60;5.30;;;;;;;13.92;69.05;100105.75;106096;1282;22714;-51
2023/04/02 10:50:32;;;;;;;10.80;5.80;;;;;;;13.97;69.23;100107.28;106716;1279;25368;-51
2023/04/02 10:53:10;;;;;;;9.60;4.90;;;;;;;14.01;69.22;100111.11;106200;1283;24272;-51
2023/04/02 10:55:43;;;;;;;8.90;4.20;;;;;;;14.03;69.27;100116.60;106719;1276;24196;-51
2023/04/02 10:58:23;;;;;;;15.90;6.10;;;;;;;14.06;69.43;100115.03;106331;1279;22534;-50
2023/04/02 11:01:28;;;;;;;10.50;5.70;;;;;;;14.10;69.36;100116.77;106601;1276;26454;-50
2023/04/02 11:04:04;;;;;;;8.00;4.90;;;;;;;14.15;69.53;100116.03;105960;1287;22591;-51
2023/04/02 11:06:40;;;;;;;6.90;4.20;;;;;;;14.20;69.54;100122.77;105925;1287;25364;-51
2023/04/02 11:09:24;;;;;;;5.40;3.70;;;;;;;14.25;69.71;100123.21;105980;1287;22551;-52
2023/04/02 11:11:54;;;;;;;8.60;4.20;;;;;;;14.31;69.70;100126.81;105916;1287;24249;-51
2023/04/02 11:14:28;;;;;;;7.60;4.00;;;;;;;14.31;69.17;100124.89;105920;1287;25242;-50
2023/04/02 11:16:59;;;;;;;7.30;3.90;;;;;;;14.21;68.77;100126.89;106066;1284;22625;-51
2023/04/02 11:19:32;;;;;;;3.80;2.60;;;;;;;14.14;68.82;100128.11;106166;1280;22563;-53
2023/04/02 11:22:01;;;;;;;7.10;3.10;;;;;;;14.08;68.86;100131.89;106779;1270;22539;-49
2023/04/02 11:24:37;;;;;;;4.50;3.00;;;;;;;14.07;68.98;100130.89;106678;1280;24633;-50
2023/04/02 11:27:10;;;;;;;4.90;2.80;;;;;;;14.10;69.11;100130.23;105907;1284;22549;-50
2023/04/02 11:29:51;;;;;;;6.90;3.30;;;;;;;14.11;69.12;100132.59;105963;1281;22532;-50
2023/04/02 11:32:26;;;;;;;5.20;2.80;;;;;;;14.16;69.19;100133.77;105764;1288;25559;-51
2023/04/02 11:34:57;;;;;;;4.50;2.90;;;;;;;14.21;69.17;100138.05;105892;1287;22209;-52
2023/04/02 11:37:43;;;;;;;5.80;3.10;;;;;;;14.26;69.18;100139.39;106379;1276;25609;-50
2023/04/02 11:40:15;;;;;;;3.20;2.30;;;;;;;14.31;68.93;100138.85;106393;1271;22679;-50
2023/04/02 11:42:47;;;;;;;4.00;2.60;;;;;;;14.37;68.95;100138.23;106864;1273;22084;-50
2023/04/02 11:48:16;;;;;;;2.90;1.90;;;;;;;14.47;68.60;100140.19;106570;1276;25343;-50
2023/04/02 11:50:45;;;;;;;2.10;1.90;;;;;;;14.50;68.31;100140.88;106623;1278;25420;-50
2023/04/02 11:56:47;;;;;;;1.50;1.40;;;;;;;14.59;68.14;100134.70;103712;1309;544816;-51
2023/04/02 11:59:38;;;;;;;3.20;1.60;;;;;;;14.59;67.95;100139.05;105963;1285;23130;-50
2023/04/02 12:02:22;;;;;;;3.60;2.20;;;;;;;14.63;67.89;100142.52;105954;1285;23970;-51
2023/04/02 12:05:19;;;;;;;2.20;2.00;;;;;;;14.67;67.83;100144.08;105112;1283;1003763;-50